TimeCDT,TemperatureF,Dew PointF,Humidity,Sea Level PressureIn,VisibilityMPH,Wind Direction,Wind SpeedMPH,Gust SpeedMPH,PrecipitationIn,Events,Conditions,WindDirDegrees,DateUTC
12:14 AM,57.2,44.6,63,29.86,10.0,WSW,5.8,-,N/A,,Clear,250,2013-05-16 05:14:00
12:33 AM,57.2,44.6,63,29.87,10.0,West,5.8,-,N/A,,Clear,270,2013-05-16 05:33:00
12:54 AM,55.4,42.8,63,29.87,10.0,West,5.8,-,N/A,,Clear,280,2013-05-16 05:54:00
1:14 AM,53.6,41.0,62,29.87,10.0,West,8.1,-,N/A,,Clear,280,2013-05-16 06:14:00
1:33 AM,53.6,41.0,62,29.87,10.0,West,8.1,-,N/A,,Clear,280,2013-05-16 06:33:00
1:54 AM,53.6,41.0,62,29.87,10.0,West,8.1,-,N/A,,Clear,270,2013-05-16 06:54:00
2:13 AM,50.0,39.2,66,29.88,10.0,West,6.9,-,N/A,,Clear,260,2013-05-16 07:13:00
2:34 AM,53.6,39.2,58,29.87,10.0,West,5.8,-,N/A,,Clear,260,2013-05-16 07:34:00
2:54 AM,51.8,41.0,67,29.88,10.0,West,5.8,-,N/A,,Clear,280,2013-05-16 07:54:00
3:13 AM,50.0,39.2,66,29.88,10.0,WNW,4.6,-,N/A,,Clear,290,2013-05-16 08:13:00
3:34 AM,50.0,39.2,66,29.88,10.0,West,5.8,-,N/A,,Clear,260,2013-05-16 08:34:00
3:54 AM,51.8,41.0,67,29.88,10.0,WNW,5.8,-,N/A,,Clear,290,2013-05-16 08:54:00
4:13 AM,50.0,39.2,66,29.88,10.0,WNW,6.9,-,N/A,,Clear,300,2013-05-16 09:13:00
4:34 AM,51.8,39.2,62,29.88,10.0,NW,4.6,-,N/A,,Clear,310,2013-05-16 09:34:00
4:54 AM,50.0,37.4,62,29.89,10.0,WNW,4.6,-,N/A,,Clear,300,2013-05-16 09:54:00
5:13 AM,51.8,37.4,58,29.88,10.0,NW,4.6,-,N/A,,Clear,320,2013-05-16 10:13:00
5:34 AM,50.0,37.4,62,29.89,10.0,NW,3.5,-,N/A,,Clear,320,2013-05-16 10:34:00
5:54 AM,48.2,37.4,66,29.89,10.0,NNW,4.6,-,N/A,,Clear,340,2013-05-16 10:54:00
6:13 AM,48.2,35.6,62,29.89,10.0,NNW,4.6,-,N/A,,Clear,340,2013-05-16 11:13:00
6:34 AM,50.0,37.4,62,29.90,10.0,NNW,3.5,-,N/A,,Clear,340,2013-05-16 11:34:00
6:54 AM,50.0,37.4,62,29.90,10.0,NNW,3.5,-,N/A,,Clear,330,2013-05-16 11:54:00
7:13 AM,51.8,39.2,62,29.90,10.0,Calm,Calm,-,N/A,,Clear,0,2013-05-16 12:13:00
7:34 AM,55.4,42.8,63,29.90,10.0,Calm,Calm,-,N/A,,Clear,0,2013-05-16 12:34:00
7:54 AM,60.8,39.2,45,29.90,10.0,East,5.8,-,N/A,,Clear,90,2013-05-16 12:54:00
8:13 AM,62.6,41.0,45,29.90,10.0,ESE,4.6,-,N/A,,Clear,110,2013-05-16 13:13:00
8:34 AM,64.4,42.8,45,29.90,10.0,SE,5.8,-,N/A,,Clear,130,2013-05-16 13:34:00
8:54 AM,66.2,41.0,40,29.90,10.0,SE,5.8,-,N/A,,Clear,140,2013-05-16 13:54:00
9:13 AM,68.0,39.2,35,29.90,10.0,ESE,8.1,-,N/A,,Clear,110,2013-05-16 14:13:00
9:34 AM,71.6,39.2,31,29.90,10.0,ESE,10.4,-,N/A,,Clear,120,2013-05-16 14:34:00
9:54 AM,71.6,39.2,31,29.89,10.0,ESE,12.7,-,N/A,,Clear,120,2013-05-16 14:54:00
10:13 AM,71.6,37.4,29,29.89,10.0,ESE,12.7,-,N/A,,Clear,120,2013-05-16 15:13:00
10:34 AM,75.2,37.4,25,29.88,10.0,SE,12.7,17.3,N/A,,Clear,130,2013-05-16 15:34:00
10:54 AM,75.2,37.4,25,29.88,10.0,ESE,10.4,-,N/A,,Clear,110,2013-05-16 15:54:00
11:13 AM,75.2,37.4,25,29.88,10.0,SE,12.7,-,N/A,,Clear,130,2013-05-16 16:13:00
11:34 AM,77.0,35.6,22,29.87,10.0,SE,11.5,17.3,N/A,,Clear,130,2013-05-16 16:34:00
11:54 AM,78.8,35.6,21,29.86,10.0,SE,9.2,-,N/A,,Clear,130,2013-05-16 16:54:00
12:13 PM,78.8,35.6,21,29.86,10.0,ESE,12.7,-,N/A,,Clear,110,2013-05-16 17:13:00
12:34 PM,80.6,33.8,18,29.85,10.0,SSE,9.2,-,N/A,,Clear,150,2013-05-16 17:34:00
12:54 PM,80.6,33.8,18,29.85,10.0,South,11.5,-,N/A,,Clear,180,2013-05-16 17:54:00
1:13 PM,80.6,33.8,18,29.85,10.0,SSE,10.4,18.4,N/A,,Clear,150,2013-05-16 18:13:00
1:34 PM,80.6,32.0,17,29.84,10.0,SSE,5.8,23.0,N/A,,Clear,160,2013-05-16 18:34:00
1:53 PM,80.6,33.8,18,29.84,10.0,SE,9.2,16.1,N/A,,Clear,130,2013-05-16 18:53:00
2:13 PM,80.6,32.0,17,29.83,10.0,SE,4.6,-,N/A,,Clear,130,2013-05-16 19:13:00
2:34 PM,80.6,32.0,17,29.84,10.0,SE,8.1,-,N/A,,Clear,140,2013-05-16 19:34:00
2:53 PM,80.6,33.8,18,29.84,10.0,South,11.5,16.1,N/A,,Clear,170,2013-05-16 19:53:00
3:13 PM,80.6,32.0,17,29.84,10.0,South,10.4,-,N/A,,Clear,190,2013-05-16 20:13:00
3:34 PM,82.4,32.0,16,29.83,10.0,South,10.4,16.1,N/A,,Clear,170,2013-05-16 20:34:00
3:53 PM,82.4,32.0,16,29.82,10.0,South,8.1,-,N/A,,Scattered Clouds,170,2013-05-16 20:53:00
4:13 PM,80.6,33.8,18,29.82,10.0,South,8.1,-,N/A,,Scattered Clouds,170,2013-05-16 21:13:00
4:34 PM,80.6,33.8,18,29.80,10.0,SSE,4.6,-,N/A,,Clear,160,2013-05-16 21:34:00
5:13 PM,80.6,35.6,20,29.79,10.0,SSE,8.1,-,N/A,,Clear,150,2013-05-16 22:13:00
5:34 PM,78.8,35.6,21,29.79,10.0,SE,9.2,-,N/A,,Scattered Clouds,130,2013-05-16 22:34:00
5:53 PM,78.8,33.8,20,29.79,10.0,SE,8.1,-,N/A,,Scattered Clouds,130,2013-05-16 22:53:00
6:13 PM,78.8,35.6,21,29.79,10.0,ESE,6.9,-,N/A,,Clear,120,2013-05-16 23:13:00
6:34 PM,78.8,33.8,20,29.79,10.0,SW,6.9,33.4,N/A,,Scattered Clouds,230,2013-05-16 23:34:00
6:53 PM,78.8,33.8,20,29.78,10.0,South,6.9,-,N/A,,Mostly Cloudy,190,2013-05-16 23:53:00
7:14 PM,78.8,33.8,20,29.79,10.0,South,6.9,-,N/A,,Mostly Cloudy,170,2013-05-17 00:14:00
7:34 PM,73.4,44.6,36,29.81,10.0,WSW,16.1,20.7,N/A,,Mostly Cloudy,250,2013-05-17 00:34:00
7:53 PM,71.6,46.4,41,29.82,10.0,West,10.4,-,N/A,,Overcast,260,2013-05-17 00:53:00
8:14 PM,69.8,46.4,43,29.83,10.0,West,10.4,-,N/A,,Scattered Clouds,260,2013-05-17 01:14:00
8:34 PM,69.8,46.4,43,29.84,10.0,West,5.8,-,N/A,,Scattered Clouds,260,2013-05-17 01:34:00
8:53 PM,68.0,48.2,49,29.85,10.0,ENE,8.1,-,N/A,Rain,Light Rain,60,2013-05-17 01:53:00
9:14 PM,69.8,46.4,43,29.85,10.0,ESE,5.8,-,N/A,,Mostly Cloudy,110,2013-05-17 02:14:00
9:34 PM,69.8,46.4,43,29.85,10.0,SE,6.9,-,N/A,,Mostly Cloudy,130,2013-05-17 02:34:00
9:53 PM,68.0,46.4,46,29.85,10.0,South,5.8,-,N/A,,Mostly Cloudy,170,2013-05-17 02:53:00
10:14 PM,68.0,46.4,46,29.85,10.0,South,3.5,-,N/A,,Overcast,180,2013-05-17 03:14:00
10:34 PM,66.2,46.4,49,29.86,10.0,Calm,Calm,-,N/A,,Mostly Cloudy,0,2013-05-17 03:34:00
10:53 PM,66.2,46.4,49,29.85,10.0,Calm,Calm,-,N/A,,Mostly Cloudy,0,2013-05-17 03:53:00
11:14 PM,66.2,46.4,49,29.85,10.0,Calm,Calm,-,N/A,,Mostly Cloudy,0,2013-05-17 04:14:00
11:33 PM,66.2,46.4,49,29.85,10.0,Calm,Calm,-,N/A,,Overcast,0,2013-05-17 04:33:00
11:54 PM,62.6,48.2,59,29.85,10.0,Calm,Calm,-,N/A,,Overcast,0,2013-05-17 04:54:00